createdAt,value
2019-04-22T00:00:44.589Z,981.17
2019-04-22T00:01:43.505Z,981.17
2019-04-22T00:02:49.050Z,981.19
2019-04-22T00:03:50.875Z,981.14
2019-04-22T00:04:56.191Z,981.14
2019-04-22T00:06:01.085Z,981.18
2019-04-22T00:07:04.294Z,981.11
2019-04-22T00:08:10.311Z,981.12
2019-04-22T00:11:12.882Z,981.10
2019-04-22T00:12:09.011Z,981.07
2019-04-22T00:13:07.785Z,981.11
2019-04-22T00:14:19.408Z,981.12
2019-04-22T00:15:05.468Z,981.08
2019-04-22T00:16:07.209Z,981.08
2019-04-22T00:17:26.218Z,981.07
2019-04-22T00:18:13.391Z,981.10
2019-04-22T00:19:15.352Z,981.05
2019-04-22T00:20:12.078Z,981.05
2019-04-22T00:22:08.089Z,981.07
2019-04-22T00:23:10.090Z,981.06
2019-04-22T00:24:04.513Z,981.08
2019-04-22T00:25:07.965Z,981.04
2019-04-22T00:26:09.700Z,981.03
2019-04-22T00:27:14.262Z,981.05
2019-04-22T00:28:08.524Z,981.02
2019-04-22T00:29:34.296Z,981.04
2019-04-22T00:30:13.753Z,981.03
2019-04-22T00:31:20.900Z,980.99
2019-04-22T00:32:05.000Z,980.97
2019-04-22T00:33:08.088Z,980.97
2019-04-22T00:34:06.763Z,980.99
2019-04-22T00:35:07.195Z,981.01
2019-04-22T00:36:14.817Z,981.03
2019-04-22T00:37:08.243Z,981.02
2019-04-22T00:38:14.243Z,981.02
2019-04-22T00:39:07.104Z,980.99
2019-04-22T00:40:12.937Z,981.00
2019-04-22T00:41:05.821Z,981.01
2019-04-22T00:42:10.097Z,981.01
2019-04-22T00:43:10.077Z,980.94
2019-04-22T00:44:12.272Z,980.96
2019-04-22T00:45:13.053Z,980.90
2019-04-22T00:46:08.586Z,980.93
2019-04-22T00:47:07.489Z,980.93
2019-04-22T00:48:09.237Z,980.97
2019-04-22T00:49:52.791Z,980.92
2019-04-22T00:50:23.920Z,980.92
2019-04-22T00:51:22.474Z,980.93
2019-04-22T00:52:12.437Z,980.92
2019-04-22T00:53:08.848Z,980.92
2019-04-22T00:54:08.503Z,980.84
2019-04-22T00:56:07.486Z,980.86
2019-04-22T00:57:08.657Z,980.80
2019-04-22T00:58:14.215Z,980.84
2019-04-22T00:59:08.208Z,980.81
2019-04-22T01:00:08.496Z,980.84
2019-04-22T01:01:12.170Z,980.82
2019-04-22T01:02:07.560Z,980.81
2019-04-22T01:03:16.007Z,980.84
2019-04-22T01:04:15.007Z,980.82
2019-04-22T01:05:07.675Z,980.84
2019-04-22T01:06:09.741Z,980.80
2019-04-22T01:07:09.461Z,980.78
2019-04-22T01:08:09.795Z,980.75
2019-04-22T01:10:12.713Z,980.76
2019-04-22T01:11:14.766Z,980.71
2019-04-22T01:12:11.046Z,980.72
2019-04-22T01:13:04.692Z,980.70
2019-04-22T01:14:07.812Z,980.70
2019-04-22T01:15:07.512Z,980.67
2019-04-22T01:16:14.010Z,980.69
2019-04-22T01:17:06.020Z,980.73
2019-04-22T01:18:03.622Z,980.65
2019-04-22T01:19:10.402Z,980.65
2019-04-22T01:20:17.567Z,980.63
2019-04-22T01:22:06.657Z,980.61
2019-04-22T01:23:09.603Z,980.58
2019-04-22T01:24:02.916Z,980.57
2019-04-22T01:25:02.465Z,980.60
2019-04-22T01:26:01.147Z,980.59
2019-04-22T01:27:00.509Z,980.54
2019-04-22T01:27:56.931Z,980.56
2019-04-22T01:28:53.666Z,980.57
2019-04-22T01:29:59.977Z,980.60
2019-04-22T01:30:51.476Z,980.53
2019-04-22T01:31:45.334Z,980.56
2019-04-22T01:32:47.262Z,980.54
2019-04-22T01:33:48.318Z,980.52
2019-04-22T01:34:57.598Z,980.53
2019-04-22T01:36:01.458Z,980.47
2019-04-22T01:37:03.590Z,980.49
2019-04-22T01:38:01.654Z,980.46
2019-04-22T01:39:05.436Z,980.44
2019-04-22T01:40:09.697Z,980.44
2019-04-22T01:41:07.064Z,980.49
2019-04-22T01:42:06.087Z,980.42
2019-04-22T01:43:06.981Z,980.49
2019-04-22T01:44:15.834Z,980.43
2019-04-22T01:45:05.696Z,980.43
2019-04-22T01:46:08.538Z,980.40
2019-04-22T01:47:11.045Z,980.42
2019-04-22T01:48:11.159Z,980.43
2019-04-22T01:49:13.058Z,980.38
2019-04-22T01:50:10.152Z,980.35
2019-04-22T01:51:01.702Z,980.35
2019-04-22T01:52:04.475Z,980.36
2019-04-22T01:53:19.655Z,980.35
2019-04-22T01:54:12.210Z,980.34
2019-04-22T01:55:32.315Z,980.31
2019-04-22T01:56:06.111Z,980.30
2019-04-22T01:57:06.214Z,980.33
2019-04-22T01:58:09.218Z,980.30
2019-04-22T01:58:59.267Z,980.28
2019-04-22T02:00:00.954Z,980.29
2019-04-22T02:01:08.937Z,980.27
2019-04-22T02:02:14.483Z,980.27
2019-04-22T02:03:12.724Z,980.27
2019-04-22T02:04:08.323Z,980.30
2019-04-22T02:05:15.677Z,980.22
2019-04-22T02:06:07.509Z,980.18
2019-04-22T02:07:09.653Z,980.19
2019-04-22T02:08:15.333Z,980.18
2019-04-22T02:09:20.286Z,980.16
2019-04-22T02:10:12.360Z,980.20
2019-04-22T02:11:08.315Z,980.16
2019-04-22T02:13:06.706Z,980.15
2019-04-22T02:14:13.270Z,980.15
2019-04-22T02:15:05.672Z,980.17
2019-04-22T02:16:14.219Z,980.15
2019-04-22T02:17:14.107Z,980.14
2019-04-22T02:18:18.657Z,980.14
2019-04-22T02:19:11.230Z,980.12
2019-04-22T02:21:07.320Z,980.07
2019-04-22T02:22:15.985Z,980.07
2019-04-22T02:23:36.964Z,980.04
2019-04-22T02:24:09.704Z,980.04
2019-04-22T02:25:11.105Z,980.03
2019-04-22T02:26:25.563Z,980.02
2019-04-22T02:27:11.001Z,980.04
2019-04-22T02:28:16.754Z,980.04
2019-04-22T02:29:06.569Z,979.99
2019-04-22T02:30:05.390Z,980.00
2019-04-22T02:32:19.417Z,979.96
2019-04-22T02:33:45.228Z,979.98
2019-04-22T02:35:44.700Z,979.97
2019-04-22T02:36:23.019Z,979.96
2019-04-22T02:37:12.757Z,979.93
2019-04-22T02:38:30.223Z,979.94
2019-04-22T02:39:15.330Z,979.90
2019-04-22T02:40:09.735Z,979.92
2019-04-22T02:41:23.083Z,979.89
2019-04-22T02:43:30.797Z,979.88
2019-04-22T02:45:07.651Z,979.88
2019-04-22T02:47:15.596Z,979.86
2019-04-22T02:48:26.693Z,979.87
2019-04-22T02:50:08.898Z,979.84
2019-04-22T02:51:18.780Z,979.79
2019-04-22T02:52:17.758Z,979.78
2019-04-22T02:53:24.209Z,979.79
2019-04-22T02:54:36.573Z,979.81
2019-04-22T02:55:40.857Z,979.81
2019-04-22T02:56:27.351Z,979.81
2019-04-22T02:57:27.942Z,979.81
2019-04-22T02:58:19.454Z,979.81
2019-04-22T03:00:29.531Z,979.79
2019-04-22T03:01:25.027Z,979.84
2019-04-22T03:02:12.104Z,979.82
2019-04-22T03:03:20.526Z,979.81
2019-04-22T03:05:23.971Z,979.77
2019-04-22T03:07:12.787Z,979.72
2019-04-22T03:08:21.231Z,979.70
2019-04-22T03:12:20.083Z,979.64
2019-04-22T03:13:24.648Z,979.61
2019-04-22T03:15:07.853Z,979.60
2019-04-22T03:17:17.685Z,979.61
2019-04-22T03:18:21.775Z,979.60
2019-04-22T03:20:11.050Z,979.62
2019-04-22T03:21:13.994Z,979.64
2019-04-22T03:25:42.297Z,979.65
2019-04-22T03:26:22.747Z,979.59
2019-04-22T03:27:16.966Z,979.57
2019-04-22T03:28:12.075Z,979.58
2019-04-22T03:29:35.149Z,979.55
2019-04-22T03:30:58.206Z,979.55
2019-04-22T03:31:21.324Z,979.56
2019-04-22T03:32:39.438Z,979.57
2019-04-22T03:36:41.869Z,979.52
2019-04-22T03:37:27.423Z,979.50
2019-04-22T03:38:07.347Z,979.50
2019-04-22T03:39:31.942Z,979.49
2019-04-22T03:40:25.086Z,979.49
2019-04-22T03:42:23.324Z,979.47
2019-04-22T03:43:13.650Z,979.41
2019-04-22T03:44:23.481Z,979.40
2019-04-22T03:46:16.668Z,979.42
2019-04-22T03:47:16.155Z,979.42
2019-04-22T03:48:07.617Z,979.44
2019-04-22T03:51:33.778Z,979.38
2019-04-22T03:52:24.686Z,979.39
2019-04-22T03:53:15.410Z,979.42
2019-04-22T03:54:29.649Z,979.38
2019-04-22T03:56:49.642Z,979.32
2019-04-22T03:57:38.499Z,979.31
2019-04-22T03:58:28.586Z,979.38
2019-04-22T03:59:26.885Z,979.28
2019-04-22T04:00:17.865Z,979.25
2019-04-22T04:01:21.914Z,979.26
2019-04-22T04:02:21.490Z,979.23
2019-04-22T04:05:22.061Z,979.20
2019-04-22T04:09:19.502Z,979.16
2019-04-22T04:10:30.092Z,979.13
2019-04-22T04:11:06.408Z,979.16
2019-04-22T04:12:21.590Z,979.14
2019-04-22T04:13:23.045Z,979.11
2019-04-22T04:14:21.818Z,979.12
2019-04-22T04:16:10.669Z,979.11
2019-04-22T04:17:28.921Z,979.11
2019-04-22T04:18:10.996Z,979.11
2019-04-22T04:19:34.883Z,979.08
2019-04-22T04:20:32.207Z,979.10
2019-04-22T04:21:26.822Z,979.10
2019-04-22T04:22:21.889Z,979.07
2019-04-22T04:23:24.271Z,979.01
2019-04-22T04:25:29.679Z,978.99
2019-04-22T04:26:17.016Z,979.00
2019-04-22T04:28:29.497Z,978.95
2019-04-22T04:32:29.952Z,978.91
2019-04-22T04:33:18.471Z,978.94
2019-04-22T04:37:28.172Z,978.84
2019-04-22T04:38:08.259Z,978.84
2019-04-22T04:41:24.834Z,978.82
2019-04-22T04:42:23.457Z,978.83
2019-04-22T04:46:27.176Z,978.83
2019-04-22T04:47:25.841Z,978.81
2019-04-22T04:48:15.963Z,978.79
2019-04-22T04:49:18.578Z,978.77
2019-04-22T04:50:35.905Z,978.77
2019-04-22T04:54:26.255Z,978.78
2019-04-22T05:01:23.185Z,978.77
2019-04-22T05:02:19.893Z,978.75
2019-04-22T05:03:20.471Z,978.74
2019-04-22T05:04:31.736Z,978.78
2019-04-22T05:05:26.600Z,978.74
2019-04-22T05:06:24.270Z,978.79
2019-04-22T05:07:18.678Z,978.78
2019-04-22T05:08:19.839Z,978.80
2019-04-22T05:09:29.895Z,978.79
2019-04-22T05:10:31.539Z,978.81
2019-04-22T05:11:16.354Z,978.77
2019-04-22T05:13:33.206Z,978.78
2019-04-22T05:14:17.196Z,978.75
2019-04-22T05:17:16.471Z,978.71
2019-04-22T05:19:15.703Z,978.72
2019-04-22T05:20:38.690Z,978.72
2019-04-22T05:21:12.341Z,978.74
2019-04-22T05:22:28.661Z,978.73
2019-04-22T05:23:06.948Z,978.74
2019-04-22T05:24:18.002Z,978.69
2019-04-22T05:25:15.133Z,978.73
2019-04-22T05:26:12.552Z,978.73
2019-04-22T05:27:19.989Z,978.72
2019-04-22T05:28:04.999Z,978.74
2019-04-22T05:29:15.048Z,978.73
2019-04-22T05:31:10.001Z,978.72
2019-04-22T05:32:12.801Z,978.71
2019-04-22T05:33:09.327Z,978.74
2019-04-22T05:34:08.481Z,978.76
2019-04-22T05:35:18.568Z,978.73
2019-04-22T05:36:10.167Z,978.70
2019-04-22T05:37:07.571Z,978.67
2019-04-22T05:38:11.206Z,978.68
2019-04-22T05:39:07.494Z,978.67
2019-04-22T05:40:19.337Z,978.65
2019-04-22T05:41:14.349Z,978.66
2019-04-22T05:42:10.198Z,978.66
2019-04-22T05:43:07.815Z,978.64
2019-04-22T05:44:08.282Z,978.62
2019-04-22T05:45:10.143Z,978.64
2019-04-22T05:45:59.191Z,978.62
2019-04-22T05:47:11.022Z,978.58
2019-04-22T05:48:02.824Z,978.59
2019-04-22T05:49:13.465Z,978.58
2019-04-22T05:50:09.458Z,978.56
2019-04-22T05:51:25.797Z,978.56
2019-04-22T05:52:11.106Z,978.58
2019-04-22T05:53:00.436Z,978.55
2019-04-22T05:54:08.035Z,978.52
2019-04-22T05:55:08.144Z,978.55
2019-04-22T05:56:12.287Z,978.52
2019-04-22T05:57:09.346Z,978.53
2019-04-22T05:58:08.634Z,978.51
2019-04-22T06:00:18.011Z,978.51
2019-04-22T06:01:29.369Z,978.50
2019-04-22T06:02:21.074Z,978.43
2019-04-22T06:03:20.915Z,978.47
2019-04-22T06:06:12.626Z,978.49
2019-04-22T06:07:07.046Z,978.50
2019-04-22T06:08:06.664Z,978.43
2019-04-22T06:09:22.466Z,978.45
2019-04-22T06:10:14.370Z,978.44
2019-04-22T06:11:10.153Z,978.48
2019-04-22T06:11:59.058Z,978.44
2019-04-22T06:13:02.227Z,978.48
2019-04-22T06:14:01.937Z,978.48
2019-04-22T06:15:10.130Z,978.48
2019-04-22T06:16:03.630Z,978.46
2019-04-22T06:17:10.666Z,978.47
2019-04-22T06:19:08.723Z,978.47
2019-04-22T06:20:12.235Z,978.48
2019-04-22T06:22:16.944Z,978.44
2019-04-22T06:23:13.889Z,978.40
2019-04-22T06:24:10.627Z,978.39
2019-04-22T06:25:14.094Z,978.39
2019-04-22T06:28:13.626Z,978.41
2019-04-22T06:29:13.776Z,978.38
2019-04-22T06:30:11.150Z,978.41
2019-04-22T06:31:10.741Z,978.40
2019-04-22T06:32:31.434Z,978.37
2019-04-22T06:33:09.459Z,978.35
2019-04-22T06:34:10.609Z,978.35
2019-04-22T06:35:18.122Z,978.35
2019-04-22T06:36:11.412Z,978.33
2019-04-22T06:39:13.264Z,978.29
2019-04-22T06:40:10.581Z,978.27
2019-04-22T06:41:16.836Z,978.24
2019-04-22T06:42:07.953Z,978.23
2019-04-22T06:43:10.436Z,978.23
2019-04-22T06:44:11.006Z,978.21
2019-04-22T06:45:15.568Z,978.21
2019-04-22T06:46:08.460Z,978.24
2019-04-22T06:47:11.816Z,978.22
2019-04-22T06:48:12.707Z,978.22
2019-04-22T06:49:11.130Z,978.23
2019-04-22T06:50:07.569Z,978.23
2019-04-22T06:51:09.508Z,978.22
2019-04-22T06:53:23.702Z,978.21
2019-04-22T06:54:12.105Z,978.18
2019-04-22T06:55:09.772Z,978.14
2019-04-22T06:56:04.900Z,978.14
2019-04-22T06:57:06.204Z,978.14
2019-04-22T06:58:04.922Z,978.15
2019-04-22T06:59:08.530Z,978.18
2019-04-22T07:00:13.618Z,978.13
2019-04-22T07:01:09.569Z,978.15
2019-04-22T07:02:12.181Z,978.08
2019-04-22T07:04:03.093Z,978.07
2019-04-22T07:05:08.305Z,978.07
2019-04-22T07:06:11.485Z,978.09
2019-04-22T07:07:08.036Z,978.05
2019-04-22T07:08:27.231Z,978.06
2019-04-22T07:10:20.138Z,978.03
2019-04-22T07:11:01.645Z,978.04
2019-04-22T07:12:11.517Z,978.01
2019-04-22T07:13:10.754Z,978.01
2019-04-22T07:14:10.544Z,977.96
2019-04-22T07:15:03.011Z,977.96
2019-04-22T07:16:03.619Z,977.93
2019-04-22T07:17:07.072Z,977.94
2019-04-22T07:18:13.259Z,977.91
2019-04-22T07:19:09.483Z,977.95
2019-04-22T07:20:04.135Z,977.93
2019-04-22T07:21:06.328Z,977.90
2019-04-22T07:22:13.514Z,977.92
2019-04-22T07:23:10.623Z,977.85
2019-04-22T07:24:27.792Z,977.87
2019-04-22T07:25:04.328Z,977.85
2019-04-22T07:26:04.278Z,977.85
2019-04-22T07:28:10.038Z,977.88
2019-04-22T07:29:09.041Z,977.87
2019-04-22T07:30:15.444Z,977.86
2019-04-22T07:31:06.682Z,977.87
2019-04-22T07:32:06.720Z,977.85
2019-04-22T07:34:16.392Z,977.79
2019-04-22T07:35:08.567Z,977.81
2019-04-22T07:38:11.237Z,977.80
2019-04-22T07:39:12.018Z,977.76
2019-04-22T07:40:02.426Z,977.76
2019-04-22T07:41:06.577Z,977.77
2019-04-22T07:42:12.625Z,977.75
2019-04-22T07:43:15.483Z,977.77
2019-04-22T07:45:10.577Z,977.71
2019-04-22T07:46:09.596Z,977.73
2019-04-22T07:47:13.422Z,977.73
2019-04-22T07:48:22.547Z,977.67
2019-04-22T07:49:10.878Z,977.65
2019-04-22T07:50:12.839Z,977.64
2019-04-22T07:51:10.068Z,977.63
2019-04-22T07:52:03.626Z,977.64
2019-04-22T07:53:05.540Z,977.63
2019-04-22T07:54:06.552Z,977.65
2019-04-22T07:55:01.022Z,977.68
2019-04-22T07:56:05.106Z,977.61
2019-04-22T07:57:15.109Z,977.60
2019-04-22T07:58:16.851Z,977.60
2019-04-22T07:59:09.269Z,977.61
2019-04-22T08:00:10.938Z,977.56
2019-04-22T08:01:12.466Z,977.55
2019-04-22T08:02:10.349Z,977.55
2019-04-22T08:03:14.607Z,977.56
2019-04-22T08:04:16.153Z,977.52
2019-04-22T08:05:12.473Z,977.52
2019-04-22T08:06:12.374Z,977.56
2019-04-22T08:08:13.182Z,977.47
2019-04-22T08:09:13.864Z,977.50
2019-04-22T08:10:17.274Z,977.49
2019-04-22T08:11:25.018Z,977.46
2019-04-22T08:12:02.101Z,977.43
2019-04-22T08:13:05.689Z,977.46
2019-04-22T08:14:07.624Z,977.36
2019-04-22T08:15:10.668Z,977.37
2019-04-22T08:17:30.855Z,977.37
2019-04-22T08:18:15.146Z,977.33
2019-04-22T08:19:10.567Z,977.32
2019-04-22T08:20:10.786Z,977.32
2019-04-22T08:21:07.608Z,977.29
2019-04-22T08:22:22.347Z,977.26
2019-04-22T08:23:09.222Z,977.25
2019-04-22T08:24:13.073Z,977.26
2019-04-22T08:25:06.884Z,977.23
2019-04-22T08:26:04.903Z,977.19
2019-04-22T08:28:10.153Z,977.21
2019-04-22T08:31:07.668Z,977.07
2019-04-22T08:32:07.665Z,977.12
2019-04-22T08:33:13.713Z,977.13
2019-04-22T08:34:14.199Z,977.11
2019-04-22T08:35:15.977Z,977.11
2019-04-22T08:37:35.686Z,977.05
2019-04-22T08:38:10.391Z,977.07
2019-04-22T08:39:07.909Z,977.08
2019-04-22T08:40:16.591Z,977.07
2019-04-22T08:42:13.902Z,977.06
2019-04-22T08:43:18.772Z,977.04
2019-04-22T08:45:28.744Z,977.02
2019-04-22T08:46:05.429Z,977.00
2019-04-22T08:47:11.483Z,977.02
2019-04-22T08:48:07.726Z,977.04
2019-04-22T08:49:05.474Z,977.03
2019-04-22T08:50:10.387Z,977.01
2019-04-22T08:51:08.764Z,977.00
2019-04-22T08:52:08.773Z,977.04
2019-04-22T08:53:10.972Z,976.99
2019-04-22T08:54:13.692Z,976.97
2019-04-22T08:55:14.384Z,976.97
2019-04-22T08:56:16.133Z,976.92
2019-04-22T08:57:26.084Z,976.94
2019-04-22T08:59:15.070Z,976.90
2019-04-22T09:00:07.155Z,976.87
2019-04-22T09:01:11.334Z,976.87
2019-04-22T09:02:17.449Z,976.84
2019-04-22T09:03:14.035Z,976.82
2019-04-22T09:05:11.969Z,976.79
2019-04-22T09:06:11.316Z,976.72
2019-04-22T09:09:06.131Z,976.74
2019-04-22T09:10:15.173Z,976.71
2019-04-22T09:11:16.043Z,976.72
2019-04-22T09:12:07.659Z,976.72
2019-04-22T09:13:28.540Z,976.67
2019-04-22T09:14:14.040Z,976.67
2019-04-22T09:15:08.560Z,976.65
2019-04-22T09:16:17.066Z,976.65
2019-04-22T09:17:13.773Z,976.57
2019-04-22T09:18:08.663Z,976.55
2019-04-22T09:19:10.664Z,976.50
2019-04-22T09:20:06.671Z,976.54
2019-04-22T09:21:15.436Z,976.54
2019-04-22T09:23:07.703Z,976.44
2019-04-22T09:24:10.767Z,976.42
2019-04-22T09:25:03.815Z,976.40
2019-04-22T09:26:08.855Z,976.43
2019-04-22T09:27:13.134Z,976.41
2019-04-22T09:28:10.407Z,976.38
2019-04-22T09:29:16.180Z,976.36
2019-04-22T09:30:06.125Z,976.34
2019-04-22T09:31:06.831Z,976.38
2019-04-22T09:32:14.826Z,976.37
2019-04-22T09:33:15.977Z,976.36
2019-04-22T09:34:12.248Z,976.32
2019-04-22T09:35:09.951Z,976.31
2019-04-22T09:37:11.701Z,976.34
2019-04-22T09:38:19.023Z,976.31
2019-04-22T09:39:12.157Z,976.23
2019-04-22T09:40:13.631Z,976.22
2019-04-22T09:41:10.308Z,976.17
2019-04-22T09:42:13.447Z,976.14
2019-04-22T09:43:13.356Z,976.17
2019-04-22T09:44:08.059Z,976.21
2019-04-22T09:45:05.693Z,976.12
2019-04-22T09:46:06.557Z,976.12
2019-04-22T09:47:07.389Z,976.12
2019-04-22T09:48:11.168Z,976.09
2019-04-22T09:49:12.376Z,976.05
2019-04-22T09:50:12.759Z,976.11
2019-04-22T09:51:05.667Z,976.08
2019-04-22T09:52:10.136Z,976.08
2019-04-22T09:53:12.691Z,976.07
2019-04-22T09:56:12.202Z,976.09
2019-04-22T09:57:09.239Z,976.06
2019-04-22T09:58:09.145Z,976.03
2019-04-22T09:59:08.804Z,976.01
2019-04-22T10:00:25.343Z,975.99
2019-04-22T10:01:16.869Z,976.01
2019-04-22T10:02:20.134Z,976.03
2019-04-22T10:03:10.300Z,975.96
2019-04-22T10:04:06.674Z,975.95
2019-04-22T10:05:17.329Z,975.97
2019-04-22T10:06:16.475Z,975.87
2019-04-22T10:07:13.065Z,975.95
2019-04-22T10:08:19.503Z,975.94
2019-04-22T10:10:09.085Z,975.84
2019-04-22T10:11:14.308Z,975.84
2019-04-22T10:12:17.190Z,975.92
2019-04-22T10:13:12.805Z,975.88
2019-04-22T10:14:08.660Z,975.86
2019-04-22T10:15:18.645Z,975.80
2019-04-22T10:16:10.592Z,975.84
2019-04-22T10:17:09.368Z,975.78
2019-04-22T10:18:12.811Z,975.77
2019-04-22T10:20:07.152Z,975.74
2019-04-22T10:21:08.692Z,975.72
2019-04-22T10:22:10.950Z,975.67
2019-04-22T10:23:10.254Z,975.65
2019-04-22T10:24:12.166Z,975.63
2019-04-22T10:25:14.578Z,975.65
2019-04-22T10:26:13.030Z,975.56
2019-04-22T10:27:07.955Z,975.62
2019-04-22T10:28:11.517Z,975.59
2019-04-22T10:29:13.692Z,975.58
2019-04-22T10:30:03.052Z,975.53
2019-04-22T10:31:14.533Z,975.49
2019-04-22T10:32:06.782Z,975.48
2019-04-22T10:33:08.544Z,975.49
2019-04-22T10:33:56.094Z,975.50
2019-04-22T10:34:48.626Z,975.53
2019-04-22T10:35:43.459Z,975.50
2019-04-22T10:36:44.042Z,975.48
2019-04-22T10:37:42.775Z,975.46
2019-04-22T10:38:42.273Z,975.44
2019-04-22T10:39:51.304Z,975.35
2019-04-22T10:40:42.800Z,975.35
2019-04-22T10:41:42.218Z,975.34
2019-04-22T10:42:43.391Z,975.35
2019-04-22T10:43:43.268Z,975.32
2019-04-22T10:44:44.709Z,975.33
2019-04-22T10:45:42.226Z,975.27
2019-04-22T10:46:42.372Z,975.29
2019-04-22T10:47:42.412Z,975.26
2019-04-22T10:48:42.237Z,975.24
2019-04-22T10:49:42.602Z,975.19
2019-04-22T10:50:43.067Z,975.16
2019-04-22T10:51:42.394Z,975.19
2019-04-22T10:52:43.465Z,975.15
2019-04-22T10:53:43.701Z,975.14
2019-04-22T10:54:43.270Z,975.13
2019-04-22T10:55:43.848Z,975.15
2019-04-22T10:56:43.194Z,975.04
2019-04-22T10:57:42.271Z,975.05
2019-04-22T10:58:42.583Z,974.99
2019-04-22T10:59:42.674Z,975.04
2019-04-22T11:00:42.275Z,975.05
2019-04-22T11:01:42.386Z,975.01
2019-04-22T11:02:43.591Z,974.90
2019-04-22T11:03:43.318Z,974.87
2019-04-22T11:04:42.288Z,974.93
2019-04-22T11:05:42.288Z,974.92
2019-04-22T11:06:51.854Z,974.89
2019-04-22T11:07:49.502Z,974.93
2019-04-22T11:08:50.426Z,974.88
2019-04-22T11:09:51.677Z,974.85
2019-04-22T11:10:54.233Z,974.81
2019-04-22T11:11:52.104Z,974.81
2019-04-22T11:12:43.299Z,974.80
2019-04-22T11:13:42.311Z,974.80
2019-04-22T11:14:43.337Z,974.79
2019-04-22T11:15:42.513Z,974.79
2019-04-22T11:16:43.513Z,974.83
2019-04-22T11:17:43.751Z,974.79
2019-04-22T11:18:43.404Z,974.80
2019-04-22T11:19:43.505Z,974.78
2019-04-22T11:20:42.335Z,974.76
2019-04-22T11:21:43.433Z,974.80
2019-04-22T11:22:42.703Z,974.74
2019-04-22T11:23:42.705Z,974.67
2019-04-22T11:24:42.346Z,974.69
2019-04-22T11:25:43.656Z,974.70
2019-04-22T11:26:43.139Z,974.68
2019-04-22T11:27:43.165Z,974.66
2019-04-22T11:28:43.395Z,974.62
2019-04-22T11:29:43.646Z,974.60
2019-04-22T11:30:42.782Z,974.65
2019-04-22T11:31:42.402Z,974.64
2019-04-22T11:32:42.376Z,974.62
2019-04-22T11:33:42.770Z,974.57
2019-04-22T11:34:42.785Z,974.55
2019-04-22T11:35:43.642Z,974.56
2019-04-22T11:36:42.996Z,974.50
2019-04-22T11:37:42.756Z,974.55
2019-04-22T11:38:48.628Z,974.56
2019-04-22T11:39:42.646Z,974.52
2019-04-22T11:40:49.635Z,974.52
2019-04-22T11:41:42.405Z,974.52
2019-04-22T11:42:43.788Z,974.54
2019-04-22T11:43:43.075Z,974.49
2019-04-22T11:44:43.232Z,974.49
2019-04-22T11:45:42.419Z,974.46
2019-04-22T11:46:43.252Z,974.44
2019-04-22T11:47:43.345Z,974.47
2019-04-22T11:48:42.503Z,974.44
2019-04-22T11:49:43.792Z,974.41
2019-04-22T11:50:43.694Z,974.40
2019-04-22T11:51:42.438Z,974.39
2019-04-22T11:52:42.643Z,974.38
2019-04-22T11:53:42.844Z,974.36
2019-04-22T11:54:43.261Z,974.33
2019-04-22T11:55:42.604Z,974.33
2019-04-22T11:56:43.043Z,974.29
2019-04-22T11:57:43.072Z,974.28
2019-04-22T11:58:42.683Z,974.26
2019-04-22T11:59:42.839Z,974.24
2019-04-22T12:00:43.222Z,974.22
2019-04-22T12:01:42.694Z,974.20
2019-04-22T12:02:43.024Z,974.18
2019-04-22T12:03:44.098Z,974.16
2019-04-22T12:04:43.527Z,974.15
2019-04-22T12:05:43.772Z,974.14
2019-04-22T12:06:42.496Z,974.16
2019-04-22T12:07:42.498Z,974.16
2019-04-22T12:08:43.716Z,974.18
2019-04-22T12:09:43.617Z,974.15
2019-04-22T12:10:49.479Z,974.10
2019-04-22T12:11:42.511Z,974.09
2019-04-22T12:12:44.819Z,974.13
2019-04-22T12:13:44.040Z,974.06
2019-04-22T12:14:42.534Z,974.07
2019-04-22T12:15:42.774Z,974.05
2019-04-22T12:16:43.642Z,974.02
2019-04-22T12:17:42.670Z,974.00
2019-04-22T12:18:43.068Z,973.99
2019-04-22T12:19:44.145Z,973.99
2019-04-22T12:20:43.372Z,973.95
2019-04-22T12:21:42.553Z,973.93
2019-04-22T12:22:42.954Z,973.91
2019-04-22T12:23:43.439Z,973.88
2019-04-22T12:24:42.605Z,973.84
2019-04-22T12:25:50.391Z,973.81
2019-04-22T12:26:42.574Z,973.80
2019-04-22T12:27:43.128Z,973.81
2019-04-22T12:28:42.586Z,973.77
2019-04-22T12:29:42.976Z,973.69
2019-04-22T12:30:43.535Z,973.71
2019-04-22T12:31:42.596Z,973.67
2019-04-22T12:32:43.560Z,973.67
2019-04-22T12:33:43.395Z,973.67
2019-04-22T12:34:43.685Z,973.64
2019-04-22T12:35:42.613Z,973.64
2019-04-22T12:36:42.773Z,973.58
2019-04-22T12:37:49.953Z,973.63
2019-04-22T12:38:42.626Z,973.59
2019-04-22T12:39:43.484Z,973.57
2019-04-22T12:40:51.299Z,973.63
2019-04-22T12:41:42.640Z,973.58
2019-04-22T12:42:42.645Z,973.59
2019-04-22T12:43:43.058Z,973.57
2019-04-22T12:44:44.095Z,973.54
2019-04-22T12:45:42.658Z,973.52
2019-04-22T12:46:43.949Z,973.55
2019-04-22T12:47:44.042Z,973.57
2019-04-22T12:48:43.394Z,973.49
2019-04-22T12:49:46.213Z,973.47
2019-04-22T12:50:44.457Z,973.46
2019-04-22T12:51:42.949Z,973.45
2019-04-22T12:52:50.931Z,973.45
2019-04-22T12:53:44.481Z,973.43
2019-04-22T12:54:42.717Z,973.46
2019-04-22T12:55:43.878Z,973.45
2019-04-22T12:56:43.969Z,973.40
2019-04-22T12:57:42.874Z,973.34
2019-04-22T12:58:43.398Z,973.35
2019-04-22T12:59:43.774Z,973.34
2019-04-22T13:00:42.820Z,973.38
2019-04-22T13:01:42.815Z,973.35
2019-04-22T13:02:43.125Z,973.29
2019-04-22T13:03:42.746Z,973.31
2019-04-22T13:04:43.484Z,973.28
2019-04-22T13:05:43.096Z,973.27
2019-04-22T13:06:44.019Z,973.30
2019-04-22T13:07:44.124Z,973.28
2019-04-22T13:08:43.576Z,973.21
2019-04-22T13:09:43.269Z,973.17
2019-04-22T13:10:53.388Z,973.20
2019-04-22T13:11:44.163Z,973.15
2019-04-22T13:12:42.846Z,973.18
2019-04-22T13:13:42.990Z,973.20
2019-04-22T13:14:43.378Z,973.13
2019-04-22T13:15:42.802Z,973.12
2019-04-22T13:16:42.952Z,973.13
2019-04-22T13:17:44.219Z,973.10
2019-04-22T13:18:50.269Z,973.09
2019-04-22T13:19:44.339Z,973.08
2019-04-22T13:20:44.294Z,973.04
2019-04-22T13:21:42.830Z,973.01
2019-04-22T13:22:43.057Z,973.00
2019-04-22T13:23:42.841Z,973.00
2019-04-22T13:24:43.863Z,972.95
2019-04-22T13:25:42.947Z,972.95
2019-04-22T13:26:43.088Z,972.96
2019-04-22T13:27:42.926Z,972.98
2019-04-22T13:28:43.214Z,972.96
2019-04-22T13:29:43.456Z,972.97
2019-04-22T13:30:44.248Z,972.97
2019-04-22T13:31:42.877Z,972.91
2019-04-22T13:32:43.016Z,972.93
2019-04-22T13:33:43.113Z,972.95
2019-04-22T13:34:48.051Z,972.94
2019-04-22T13:35:43.829Z,972.92
2019-04-22T13:36:44.906Z,972.94
2019-04-22T13:37:43.304Z,972.93
2019-04-22T13:38:42.991Z,972.89
2019-04-22T13:39:43.244Z,972.90
2019-04-22T13:40:57.827Z,972.91
2019-04-22T13:41:49.749Z,972.80
2019-04-22T13:42:42.930Z,972.87
2019-04-22T13:43:42.964Z,972.83
2019-04-22T13:44:44.033Z,972.87
2019-04-22T13:45:43.730Z,972.88
2019-04-22T13:47:04.091Z,972.85
2019-04-22T13:48:03.022Z,972.86
2019-04-22T13:49:09.684Z,972.86
2019-04-22T13:50:21.045Z,972.83
2019-04-22T13:51:20.663Z,972.84
2019-04-22T13:52:26.751Z,972.80
2019-04-22T13:53:24.243Z,972.80
2019-04-22T13:54:36.559Z,972.77
2019-04-22T13:55:05.662Z,972.71
2019-04-22T13:56:00.675Z,972.74
2019-04-22T13:56:56.850Z,972.69
2019-04-22T13:57:58.262Z,972.66
2019-04-22T13:58:56.388Z,972.70
2019-04-22T13:59:48.080Z,972.64
2019-04-22T14:00:43.008Z,972.60
2019-04-22T14:01:43.087Z,972.63
2019-04-22T14:02:44.561Z,972.64
2019-04-22T14:03:44.435Z,972.63
2019-04-22T14:04:43.024Z,972.61
2019-04-22T14:05:43.029Z,972.62
2019-04-22T14:06:43.032Z,972.58
2019-04-22T14:07:43.174Z,972.56
2019-04-22T14:08:43.167Z,972.56
2019-04-22T14:09:44.404Z,972.52
2019-04-22T14:10:43.055Z,972.53